createdAt,value
2017-12-25T00:01:28.671Z,17.20
2017-12-25T00:03:56.122Z,17.40
2017-12-25T00:06:23.581Z,18.13
2017-12-25T00:08:51.811Z,18.20
2017-12-25T00:11:19.262Z,18.33
2017-12-25T00:13:46.730Z,13.83
2017-12-25T00:16:14.190Z,17.97
2017-12-25T00:18:41.644Z,18.33
2017-12-25T00:21:09.109Z,16.93
2017-12-25T00:23:36.567Z,18.43
2017-12-25T00:26:04.022Z,16.87
2017-12-25T00:28:31.487Z,17.23
2017-12-25T00:30:58.941Z,13.83
2017-12-25T00:33:26.395Z,19.73
2017-12-25T00:35:53.889Z,15.87
2017-12-25T00:38:22.117Z,16.10
2017-12-25T00:40:49.578Z,12.27
2017-12-25T00:43:17.054Z,19.50
2017-12-25T00:45:44.502Z,15.20
2017-12-25T00:48:11.954Z,15.73
2017-12-25T00:50:39.422Z,12.57
2017-12-25T00:53:06.894Z,13.83
2017-12-25T00:55:34.347Z,12.37
2017-12-25T00:58:01.810Z,12.23
2017-12-25T01:00:30.030Z,15.93
2017-12-25T01:02:57.487Z,15.33
2017-12-25T01:05:24.962Z,14.10
2017-12-25T01:07:52.412Z,21.50
2017-12-25T01:10:19.879Z,13.43
2017-12-25T01:12:47.342Z,13.07
2017-12-25T01:15:14.798Z,13.07
2017-12-25T01:17:42.251Z,13.67
2017-12-25T01:20:09.730Z,15.17
2017-12-25T01:22:37.181Z,13.13
2017-12-25T01:25:06.152Z,12.70
2017-12-25T01:27:33.623Z,14.20
2017-12-25T01:30:01.080Z,14.10
2017-12-25T01:32:28.538Z,13.33
2017-12-25T01:34:56.007Z,23.13
2017-12-25T01:37:23.463Z,12.97
2017-12-25T01:39:50.919Z,11.80
2017-12-25T01:42:18.381Z,12.30
2017-12-25T01:44:46.608Z,13.60
2017-12-25T01:47:14.065Z,14.83
2017-12-25T01:49:41.530Z,14.73
2017-12-25T01:52:09.003Z,13.33
2017-12-25T01:54:38.739Z,14.10
2017-12-25T02:00:07.701Z,16.30
2017-12-25T02:02:35.159Z,15.60
2017-12-25T02:08:27.450Z,16.80
2017-12-25T02:10:54.919Z,18.17
2017-12-25T02:13:22.370Z,17.03
2017-12-25T02:15:49.828Z,18.80
2017-12-25T02:18:17.291Z,16.50
2017-12-25T02:20:45.514Z,17.70
2017-12-25T02:23:12.979Z,19.33
2017-12-25T02:25:40.447Z,18.70
2017-12-25T02:28:07.902Z,17.90
2017-12-25T02:30:35.368Z,15.43
2017-12-25T02:33:02.843Z,21.53
2017-12-25T02:35:30.303Z,16.87
2017-12-25T02:37:57.759Z,18.30
2017-12-25T02:40:25.222Z,17.70
2017-12-25T02:42:53.492Z,17.03
2017-12-25T02:45:20.950Z,22.50
2017-12-25T02:47:48.427Z,16.60
2017-12-25T02:50:16.652Z,14.53
2017-12-25T02:52:44.112Z,17.63
2017-12-25T02:55:11.583Z,18.17
2017-12-25T02:57:39.038Z,16.77
2017-12-25T03:00:06.494Z,19.30
2017-12-25T03:02:33.977Z,16.53
2017-12-25T03:05:02.199Z,18.17
2017-12-25T03:07:29.667Z,16.17
2017-12-25T03:09:57.890Z,15.33
2017-12-25T03:12:26.131Z,15.33
2017-12-25T03:14:53.622Z,17.30
2017-12-25T03:17:21.855Z,17.57
2017-12-25T03:19:49.311Z,16.63
2017-12-25T03:22:16.784Z,18.33
2017-12-25T03:24:44.255Z,17.87
2017-12-25T03:27:12.480Z,19.67
2017-12-25T03:29:39.942Z,16.73
2017-12-25T03:32:07.411Z,16.50
2017-12-25T03:34:34.871Z,15.77
2017-12-25T03:37:02.347Z,23.17
2017-12-25T03:39:29.809Z,18.13
2017-12-25T03:41:58.034Z,21.33
2017-12-25T03:44:25.485Z,22.87
2017-12-25T03:46:52.961Z,15.80
2017-12-25T03:49:20.423Z,18.60
2017-12-25T03:51:47.878Z,20.87
2017-12-25T03:54:15.351Z,18.77
2017-12-25T03:56:42.810Z,18.87
2017-12-25T03:59:10.270Z,17.73
2017-12-25T04:01:37.746Z,19.33
2017-12-25T04:04:06.056Z,16.20
2017-12-25T04:06:33.510Z,19.30
2017-12-25T04:09:00.983Z,19.23
2017-12-25T04:11:28.443Z,19.03
2017-12-25T04:13:55.918Z,20.57
2017-12-25T04:16:23.378Z,18.87
2017-12-25T04:18:50.843Z,20.13
2017-12-25T04:21:18.295Z,17.63
2017-12-25T04:23:45.768Z,18.33
2017-12-25T04:26:13.219Z,19.87
2017-12-25T04:28:40.675Z,17.90
2017-12-25T04:31:08.141Z,21.40
2017-12-25T04:33:36.355Z,18.50
2017-12-25T04:36:03.811Z,17.73
2017-12-25T04:38:31.274Z,21.40
2017-12-25T04:40:58.731Z,15.93
2017-12-25T04:43:26.194Z,18.57
2017-12-25T04:45:53.659Z,18.70
2017-12-25T04:48:21.119Z,16.17
2017-12-25T04:50:48.578Z,21.80
2017-12-25T04:53:16.050Z,17.87
2017-12-25T04:55:43.507Z,19.10
2017-12-25T04:58:10.968Z,17.00
2017-12-25T05:00:38.424Z,15.23
2017-12-25T05:03:05.882Z,16.33
2017-12-25T05:05:33.332Z,16.80
2017-12-25T05:08:00.805Z,17.63
2017-12-25T05:10:28.254Z,15.03
2017-12-25T05:12:55.714Z,14.17
2017-12-25T05:15:23.184Z,15.00
2017-12-25T05:17:51.411Z,13.40
2017-12-25T05:20:18.875Z,18.63
2017-12-25T05:22:46.348Z,13.47
2017-12-25T05:25:13.815Z,14.80
2017-12-25T05:27:41.271Z,14.00
2017-12-25T05:30:08.773Z,14.93
2017-12-25T05:32:36.218Z,13.23
2017-12-25T05:35:03.666Z,10.93
2017-12-25T05:37:31.131Z,13.57
2017-12-25T05:39:58.583Z,11.53
2017-12-25T05:42:26.039Z,11.33
2017-12-25T05:44:53.512Z,13.13
2017-12-25T05:47:20.969Z,11.43
2017-12-25T05:49:48.425Z,12.30
2017-12-25T05:52:15.904Z,10.40
2017-12-25T05:54:43.357Z,10.30
2017-12-25T05:57:10.807Z,9.63
2017-12-25T05:59:38.271Z,8.90
2017-12-25T06:02:05.714Z,8.03
2017-12-25T06:04:33.176Z,11.03
2017-12-25T06:07:00.651Z,7.03
2017-12-25T06:09:28.106Z,6.00
2017-12-25T06:11:55.579Z,6.13
2017-12-25T06:14:23.043Z,5.17
2017-12-25T06:16:50.494Z,4.97
2017-12-25T06:19:17.986Z,4.80
2017-12-25T06:21:45.464Z,5.03
2017-12-25T06:24:12.903Z,4.73
2017-12-25T06:26:40.355Z,5.03
2017-12-25T06:29:07.824Z,4.10
2017-12-25T06:31:36.044Z,3.70
2017-12-25T06:34:03.488Z,3.70
2017-12-25T06:36:30.948Z,3.93
2017-12-25T06:38:58.407Z,5.50
2017-12-25T06:41:25.859Z,4.03
2017-12-25T06:43:53.322Z,6.23
2017-12-25T06:46:21.539Z,4.83
2017-12-25T06:48:49.763Z,4.10
2017-12-25T06:51:17.227Z,3.93
2017-12-25T06:53:44.685Z,4.77
2017-12-25T06:56:12.148Z,6.23
2017-12-25T06:58:39.599Z,4.07
2017-12-25T07:01:07.046Z,3.10
2017-12-25T07:03:34.503Z,3.60
2017-12-25T07:06:01.972Z,4.37
2017-12-25T07:08:29.419Z,3.87
2017-12-25T07:10:56.877Z,3.90
2017-12-25T07:13:24.412Z,2.87
2017-12-25T07:15:51.863Z,3.40
2017-12-25T07:18:19.314Z,2.60
2017-12-25T07:20:46.774Z,2.73
2017-12-25T07:23:14.222Z,3.37
2017-12-25T07:25:41.682Z,3.87
2017-12-25T07:28:09.151Z,2.90
2017-12-25T07:30:36.596Z,3.20
2017-12-25T07:33:04.040Z,2.67
2017-12-25T07:35:31.503Z,3.63
2017-12-25T07:37:58.952Z,2.60
2017-12-25T07:40:26.406Z,2.53
2017-12-25T07:42:54.628Z,2.77
2017-12-25T07:45:22.083Z,2.57
2017-12-25T07:47:49.539Z,2.20
2017-12-25T07:50:17.008Z,4.40
2017-12-25T07:52:44.463Z,1.90
2017-12-25T07:55:11.920Z,2.13
2017-12-25T07:57:39.391Z,1.73
2017-12-25T08:02:40.730Z,2.93
2017-12-25T08:05:08.180Z,2.77
2017-12-25T08:07:35.640Z,1.87
2017-12-25T08:10:03.103Z,2.10
2017-12-25T08:12:30.565Z,2.10
2017-12-25T08:14:58.003Z,3.03
2017-12-25T08:17:25.472Z,3.40
2017-12-25T08:19:52.918Z,3.03
2017-12-25T08:22:20.371Z,2.40
2017-12-25T08:24:47.839Z,3.17
2017-12-25T08:27:15.300Z,1.80
2017-12-25T08:29:42.747Z,1.40
2017-12-25T08:32:10.216Z,1.67
2017-12-25T08:34:37.667Z,1.40
2017-12-25T08:37:05.124Z,1.63
2017-12-25T08:39:32.591Z,2.60
2017-12-25T08:42:00.046Z,2.37
2017-12-25T08:44:27.498Z,1.40
2017-12-25T08:46:54.962Z,5.20
2017-12-25T08:49:22.416Z,1.40
2017-12-25T08:51:49.870Z,1.20
2017-12-25T08:54:17.344Z,2.93
2017-12-25T08:56:44.791Z,1.20
2017-12-25T08:59:12.242Z,2.00
2017-12-25T09:01:39.709Z,1.37
2017-12-25T09:04:07.164Z,1.23
2017-12-25T09:06:34.615Z,1.13
2017-12-25T09:09:02.095Z,3.90
2017-12-25T09:11:29.539Z,1.70
2017-12-25T09:13:56.988Z,0.97
2017-12-25T09:16:24.490Z,0.97
2017-12-25T09:18:51.943Z,1.70
2017-12-25T09:21:19.391Z,1.23
2017-12-25T09:23:47.623Z,0.83
2017-12-25T09:26:15.086Z,2.33
2017-12-25T09:28:42.530Z,1.10
2017-12-25T09:31:09.991Z,1.07
2017-12-25T09:33:37.445Z,1.13
2017-12-25T09:36:04.898Z,2.23
2017-12-25T09:38:33.132Z,0.93
2017-12-25T09:41:00.583Z,1.10
2017-12-25T09:43:28.812Z,0.97
2017-12-25T09:45:56.263Z,1.30
2017-12-25T09:48:23.713Z,2.03
2017-12-25T09:50:51.167Z,1.37
2017-12-25T09:53:18.630Z,2.90
2017-12-25T09:55:46.165Z,1.23
2017-12-25T09:58:13.624Z,1.00
2017-12-25T10:00:41.087Z,1.00
2017-12-25T10:03:08.535Z,1.93
2017-12-25T10:05:35.986Z,1.10
2017-12-25T10:08:03.459Z,2.37
2017-12-25T10:10:30.907Z,1.97
2017-12-25T10:12:58.363Z,2.30
2017-12-25T10:15:25.818Z,2.50
2017-12-25T10:17:53.281Z,3.40
2017-12-25T10:20:20.731Z,3.40
2017-12-25T10:22:48.200Z,3.00
2017-12-25T10:25:15.655Z,3.27
2017-12-25T10:27:43.111Z,3.30
2017-12-25T10:30:10.582Z,3.40
2017-12-25T10:32:38.039Z,3.37
2017-12-25T10:35:05.487Z,2.90
2017-12-25T10:37:32.951Z,3.73
2017-12-25T10:40:00.409Z,3.67
2017-12-25T10:42:27.868Z,2.13
2017-12-25T10:44:55.333Z,2.30
2017-12-25T10:47:22.785Z,2.40
2017-12-25T10:49:50.236Z,2.00
2017-12-25T10:52:17.707Z,4.50
2017-12-25T10:54:45.156Z,2.00
2017-12-25T10:57:12.607Z,2.80
2017-12-25T10:59:40.075Z,2.90
2017-12-25T11:02:07.523Z,3.30
2017-12-25T11:04:34.968Z,3.50
2017-12-25T11:07:03.207Z,4.50
2017-12-25T11:09:30.667Z,28.37
2017-12-25T11:11:58.124Z,5.40
2017-12-25T11:14:25.679Z,3.57
2017-12-25T11:16:53.160Z,3.47
2017-12-25T11:19:20.606Z,3.67
2017-12-25T11:21:48.063Z,4.13
2017-12-25T11:24:15.519Z,3.20
2017-12-25T11:26:42.980Z,2.73
2017-12-25T11:29:10.448Z,2.70
2017-12-25T11:31:37.910Z,2.57
2017-12-25T11:34:05.364Z,2.50
2017-12-25T11:36:32.831Z,2.43
2017-12-25T11:39:00.282Z,2.17
2017-12-25T11:41:27.743Z,4.00
2017-12-25T11:43:55.215Z,2.10
2017-12-25T11:46:22.667Z,2.13
2017-12-25T11:48:50.120Z,2.30
2017-12-25T11:51:17.613Z,2.27
2017-12-25T11:53:45.038Z,2.57
2017-12-25T11:56:12.501Z,2.40
2017-12-25T11:58:39.966Z,3.43
2017-12-25T12:01:07.423Z,2.73
2017-12-25T12:03:34.872Z,2.47
2017-12-25T12:06:02.339Z,2.90
2017-12-25T12:08:29.790Z,2.20
2017-12-25T12:10:57.247Z,2.57
2017-12-25T12:13:24.706Z,4.73
2017-12-25T12:15:52.163Z,2.50
2017-12-25T12:18:19.610Z,2.67
2017-12-25T12:20:47.078Z,1.90
2017-12-25T12:23:15.306Z,1.93
2017-12-25T12:25:42.761Z,1.97
2017-12-25T12:28:10.224Z,1.90
2017-12-25T12:30:37.676Z,1.50
2017-12-25T12:33:05.126Z,1.63
2017-12-25T12:35:32.590Z,3.33
2017-12-25T12:38:00.039Z,4.83
2017-12-25T12:40:27.491Z,1.93
2017-12-25T12:42:54.952Z,1.70
2017-12-25T12:45:22.411Z,2.53
2017-12-25T12:47:49.864Z,1.63
2017-12-25T12:50:17.330Z,1.20
2017-12-25T12:52:44.778Z,1.40
2017-12-25T12:55:12.230Z,2.00
2017-12-25T12:57:39.703Z,1.40
2017-12-25T13:00:07.155Z,1.47
2017-12-25T13:02:34.618Z,1.43
2017-12-25T13:05:02.084Z,1.60
2017-12-25T13:07:29.543Z,2.00
2017-12-25T13:09:56.995Z,1.80
2017-12-25T13:12:24.473Z,2.90
2017-12-25T13:14:51.920Z,1.80
2017-12-25T13:17:19.375Z,1.20
2017-12-25T13:19:46.838Z,2.20
2017-12-25T13:22:14.300Z,4.73
2017-12-25T13:24:41.750Z,2.70
2017-12-25T13:27:09.211Z,2.30
2017-12-25T13:29:36.670Z,2.40
2017-12-25T13:32:04.132Z,2.50
2017-12-25T13:34:31.599Z,3.10
2017-12-25T13:36:59.827Z,3.43
2017-12-25T13:39:27.283Z,3.30
2017-12-25T13:41:54.754Z,3.67
2017-12-25T13:44:22.238Z,4.00
2017-12-25T13:46:49.666Z,2.93
2017-12-25T13:49:17.147Z,3.80
2017-12-25T13:51:44.601Z,3.50
2017-12-25T13:54:12.052Z,2.90
2017-12-25T13:56:39.514Z,3.90
2017-12-25T13:59:06.968Z,4.17
2017-12-25T14:01:34.424Z,3.20
2017-12-25T14:04:01.883Z,3.40
2017-12-25T14:06:29.344Z,3.40
2017-12-25T14:08:56.788Z,2.23
2017-12-25T14:11:24.260Z,2.03
2017-12-25T14:13:51.714Z,2.20
2017-12-25T14:16:19.162Z,2.93
2017-12-25T14:18:46.626Z,1.70
2017-12-25T14:21:14.075Z,4.53
2017-12-25T14:23:41.527Z,3.40
2017-12-25T14:26:08.998Z,2.33
2017-12-25T14:28:36.454Z,3.63
2017-12-25T14:31:03.898Z,2.37
2017-12-25T14:33:31.364Z,2.23
2017-12-25T14:35:58.821Z,3.40
2017-12-25T14:38:26.281Z,2.00
2017-12-25T14:40:53.777Z,2.90
2017-12-25T14:43:21.240Z,1.93
2017-12-25T14:45:48.688Z,2.23
2017-12-25T14:48:16.155Z,1.60
2017-12-25T14:50:43.603Z,2.13
2017-12-25T14:53:11.066Z,2.10
2017-12-25T14:55:38.531Z,1.80
2017-12-25T14:58:05.988Z,2.00
2017-12-25T15:00:33.466Z,1.80
2017-12-25T15:03:00.940Z,2.50
2017-12-25T15:05:28.399Z,1.30
2017-12-25T15:07:55.865Z,1.63
2017-12-25T15:10:23.331Z,1.97
2017-12-25T15:12:51.547Z,6.73
2017-12-25T15:15:19.003Z,2.57
2017-12-25T15:17:46.463Z,1.93
2017-12-25T15:20:13.919Z,3.63
2017-12-25T15:22:41.371Z,1.93
2017-12-25T15:25:08.840Z,1.60
2017-12-25T15:27:36.286Z,2.13
2017-12-25T15:30:03.739Z,2.50
2017-12-25T15:32:31.203Z,3.10
2017-12-25T15:34:58.663Z,5.70
2017-12-25T15:37:26.107Z,2.40
2017-12-25T15:39:53.602Z,2.70
2017-12-25T15:42:21.053Z,2.50
2017-12-25T15:44:48.516Z,2.53
2017-12-25T15:47:15.971Z,2.50
2017-12-25T15:49:43.453Z,2.60
2017-12-25T15:52:11.675Z,3.90
2017-12-25T15:54:39.144Z,2.40
2017-12-25T15:57:06.603Z,3.40
2017-12-25T15:59:34.059Z,3.70
2017-12-25T16:02:01.524Z,3.27
2017-12-25T16:04:28.976Z,6.20
2017-12-25T16:06:56.432Z,3.80
2017-12-25T16:09:23.898Z,4.63
2017-12-25T16:11:51.347Z,5.63
2017-12-25T16:14:18.796Z,3.73
2017-12-25T16:16:46.271Z,3.70
2017-12-25T16:19:13.732Z,4.03
2017-12-25T16:21:41.202Z,4.27
2017-12-25T16:24:08.671Z,4.67
2017-12-25T16:26:36.882Z,3.63
2017-12-25T16:29:04.339Z,4.90
2017-12-25T16:31:31.791Z,4.60
2017-12-25T16:33:59.252Z,3.20
2017-12-25T16:36:26.698Z,5.03
2017-12-25T16:38:54.158Z,6.73
2017-12-25T16:41:21.607Z,5.90
2017-12-25T16:43:49.056Z,5.20
2017-12-25T16:46:16.520Z,4.07
2017-12-25T16:48:43.983Z,3.90
2017-12-25T16:51:11.439Z,6.53
2017-12-25T16:53:38.910Z,5.60
2017-12-25T16:56:06.366Z,5.07
2017-12-25T16:58:33.823Z,4.13
2017-12-25T17:01:01.291Z,5.50
2017-12-25T17:03:28.754Z,4.40
2017-12-25T17:05:56.203Z,4.53
2017-12-25T17:08:23.672Z,4.20
2017-12-25T17:10:51.117Z,4.80
2017-12-25T17:13:18.567Z,6.90
2017-12-25T17:15:46.049Z,4.60
2017-12-25T17:18:13.507Z,5.03
2017-12-25T17:20:40.959Z,5.27
2017-12-25T17:23:08.427Z,4.97
2017-12-25T17:25:35.885Z,5.53
2017-12-25T17:28:03.331Z,5.90
2017-12-25T17:30:30.800Z,8.10
2017-12-25T17:32:58.266Z,5.93
2017-12-25T17:35:26.491Z,6.87
2017-12-25T17:37:53.958Z,6.73
2017-12-25T17:40:21.421Z,5.77
2017-12-25T17:42:48.882Z,7.33
2017-12-25T17:45:16.350Z,6.00
2017-12-25T17:47:43.799Z,8.10
2017-12-25T17:50:11.267Z,7.93
2017-12-25T17:52:38.733Z,9.87
2017-12-25T17:55:06.178Z,9.23
2017-12-25T17:57:33.691Z,8.30
2017-12-25T18:00:01.104Z,10.10
2017-12-25T18:02:29.331Z,12.00
2017-12-25T18:04:56.782Z,9.27
2017-12-25T18:07:24.255Z,11.63
2017-12-25T18:09:51.711Z,9.90
2017-12-25T18:12:19.158Z,8.23
2017-12-25T18:14:46.630Z,8.90
2017-12-25T18:17:14.084Z,8.60
2017-12-25T18:19:41.539Z,8.20
2017-12-25T18:22:09.070Z,8.53
2017-12-25T18:24:36.559Z,8.27
2017-12-25T18:27:04.007Z,9.40
2017-12-25T18:29:31.474Z,7.83
2017-12-25T18:31:58.927Z,8.03
2017-12-25T18:34:26.384Z,7.57
2017-12-25T18:36:53.839Z,10.80
2017-12-25T18:39:21.295Z,7.00
2017-12-25T18:41:48.738Z,8.50
2017-12-25T18:44:16.207Z,7.33
2017-12-25T18:46:43.658Z,7.37
2017-12-25T18:49:11.118Z,6.20
2017-12-25T18:51:38.574Z,6.60
2017-12-25T18:54:06.031Z,6.73
2017-12-25T18:56:33.515Z,6.67
2017-12-25T18:59:00.974Z,6.80
2017-12-25T19:01:28.439Z,6.70
2017-12-25T19:03:56.666Z,6.50
2017-12-25T19:06:24.135Z,5.67
2017-12-25T19:08:51.583Z,6.27
2017-12-25T19:11:19.030Z,6.80
2017-12-25T19:13:46.504Z,6.37
2017-12-25T19:16:13.959Z,5.80
2017-12-25T19:18:41.418Z,7.30
2017-12-25T19:21:08.891Z,8.13
2017-12-25T19:23:36.342Z,7.27
2017-12-25T19:26:03.793Z,6.00
2017-12-25T19:28:31.318Z,7.07
2017-12-25T19:30:58.755Z,7.33
2017-12-25T19:33:26.205Z,7.90
2017-12-25T19:35:54.430Z,5.97
2017-12-25T19:38:21.891Z,7.57
2017-12-25T19:40:49.343Z,8.63
2017-12-25T19:43:16.827Z,8.70
2017-12-25T19:45:44.283Z,7.43
2017-12-25T19:48:11.734Z,9.10
2017-12-25T19:50:39.200Z,8.70
2017-12-25T19:53:06.646Z,8.97
2017-12-25T19:55:34.098Z,8.60
2017-12-25T19:58:01.567Z,10.13
2017-12-25T20:00:29.020Z,10.23
2017-12-25T20:02:56.476Z,9.67
2017-12-25T20:05:23.951Z,9.13
2017-12-25T20:07:52.261Z,9.23
2017-12-25T20:10:19.720Z,11.60
2017-12-25T20:12:47.192Z,9.33
2017-12-25T20:15:14.643Z,10.17
2017-12-25T20:17:42.094Z,12.00
2017-12-25T20:20:09.552Z,10.30
2017-12-25T20:22:37.012Z,11.80
2017-12-25T20:25:04.463Z,8.90
2017-12-25T20:27:31.926Z,8.70
2017-12-25T20:29:59.385Z,10.70
2017-12-25T20:32:26.844Z,10.77
2017-12-25T20:34:54.311Z,12.37
2017-12-25T20:37:21.759Z,8.60
2017-12-25T20:39:49.217Z,9.97
2017-12-25T20:42:16.684Z,13.27
2017-12-25T20:44:44.155Z,10.57
2017-12-25T20:47:11.607Z,9.97
2017-12-25T20:49:39.070Z,9.23
2017-12-25T20:52:06.519Z,9.70
2017-12-25T20:54:33.981Z,10.00
2017-12-25T20:57:01.448Z,9.23
2017-12-25T20:59:28.907Z,11.40
2017-12-25T21:01:56.359Z,10.30
2017-12-25T21:04:23.827Z,7.90
2017-12-25T21:06:52.043Z,8.90
2017-12-25T21:09:19.561Z,13.40
2017-12-25T21:11:46.983Z,11.50
2017-12-25T21:14:14.454Z,11.23
2017-12-25T21:16:41.915Z,11.80
2017-12-25T21:19:09.378Z,11.37
2017-12-25T21:21:36.867Z,11.03
2017-12-25T21:24:04.319Z,11.37
2017-12-25T21:26:31.795Z,11.13
2017-12-25T21:28:59.255Z,10.77
2017-12-25T21:31:26.722Z,11.47
2017-12-25T21:33:54.175Z,14.73
2017-12-25T21:36:21.635Z,11.30
2017-12-25T21:38:49.095Z,10.80
2017-12-25T21:41:16.558Z,13.83
2017-12-25T21:43:44.030Z,11.17
2017-12-25T21:46:11.498Z,12.47
2017-12-25T21:48:38.959Z,14.80
2017-12-25T21:51:06.460Z,11.07
2017-12-25T21:53:33.918Z,10.60
2017-12-25T21:56:01.392Z,9.53
2017-12-25T21:58:28.879Z,13.43
2017-12-25T22:00:56.339Z,12.23
2017-12-25T22:03:23.802Z,13.20
2017-12-25T22:05:51.253Z,10.90
2017-12-25T22:08:18.697Z,12.23
2017-12-25T22:10:46.171Z,10.87
2017-12-25T22:13:13.631Z,12.57
2017-12-25T22:15:41.891Z,12.03
2017-12-25T22:18:09.371Z,10.33
2017-12-25T22:20:37.590Z,12.03
2017-12-25T22:23:05.043Z,12.90
2017-12-25T22:25:32.540Z,9.80
2017-12-25T22:28:00.059Z,11.37
2017-12-25T22:30:27.449Z,11.10
2017-12-25T22:32:54.924Z,10.33
2017-12-25T22:35:23.149Z,10.33
2017-12-25T22:37:50.610Z,13.47
2017-12-25T22:40:18.843Z,7.47
2017-12-25T22:42:47.065Z,8.03
2017-12-25T22:45:14.519Z,8.77
2017-12-25T22:47:41.987Z,8.03
2017-12-25T22:50:09.454Z,8.60
2017-12-25T22:52:36.900Z,9.27
2017-12-25T22:55:04.366Z,10.00
2017-12-25T22:57:31.827Z,8.87
2017-12-25T22:59:59.278Z,6.50
2017-12-25T23:02:26.751Z,11.10
2017-12-25T23:04:54.198Z,8.53
2017-12-25T23:07:21.663Z,8.40
2017-12-25T23:09:49.125Z,7.90
2017-12-25T23:12:17.343Z,7.30
2017-12-25T23:14:44.803Z,9.03
2017-12-25T23:17:12.262Z,11.07
2017-12-25T23:19:39.717Z,9.87
2017-12-25T23:22:07.204Z,8.50
2017-12-25T23:24:34.667Z,8.23
2017-12-25T23:27:02.122Z,7.87
2017-12-25T23:29:29.578Z,10.13
2017-12-25T23:31:57.040Z,8.07
2017-12-25T23:34:24.499Z,8.30
2017-12-25T23:36:51.958Z,9.13
2017-12-25T23:39:19.427Z,12.27
2017-12-25T23:41:47.651Z,8.13
2017-12-25T23:44:15.113Z,9.70
2017-12-25T23:46:42.575Z,14.63
2017-12-25T23:49:10.030Z,7.43
2017-12-25T23:51:37.507Z,11.60
2017-12-25T23:54:04.967Z,9.03
2017-12-25T23:56:32.418Z,11.80
2017-12-25T23:58:59.875Z,9.60
